Terminal Aerodrome Forecast
Issued by NWS

Current Version | Previous Version | Graphics & Text | Print | Product List | Glossary On
Versions: 1 2 3 4 5 6 7 8 9 10 11 12 13 14 15 16 17 18
444
FTUS41 KILN 290524
TAFLCK
TAF
KLCK 290524Z 2906/3006 06006KT P6SM SCT035 BKN200
     FM290800 VRB03KT 4SM BR SCT080 BKN250
     FM291400 04006KT P6SM SCT040
     FM300000 05003KT P6SM SCT080=

USA.gov is the U.S. government's official web portal to all federal, state and local government web resources and services.